sensor_id;sensor_type;location;lat;lon;timestamp;pressure;altitude;pressure_sealevel;temperature;humidity
61324;BME280;47203;48.428;11.974;2024-02-15T00:00:59;97315.25;;;14.25;47.44
61324;BME280;47203;48.428;11.974;2024-02-15T00:03:04;97312.09;;;14.23;47.48
61324;BME280;47203;48.428;11.974;2024-02-15T00:05:25;97312.63;;;14.20;47.18
61324;BME280;47203;48.428;11.974;2024-02-15T00:07:29;97310.00;;;14.20;47.54
61324;BME280;47203;48.428;11.974;2024-02-15T00:09:35;97306.03;;;14.17;47.72
61324;BME280;47203;48.428;11.974;2024-02-15T00:11:38;97299.13;;;14.16;47.75
61324;BME280;47203;48.428;11.974;2024-02-15T00:13:42;97296.00;;;14.14;47.52
61324;BME280;47203;48.428;11.974;2024-02-15T00:15:46;97290.97;;;14.12;47.61
61324;BME280;47203;48.428;11.974;2024-02-15T00:17:50;97296.25;;;14.12;47.50
61324;BME280;47203;48.428;11.974;2024-02-15T00:19:55;97291.25;;;14.11;47.37
61324;BME280;47203;48.428;11.974;2024-02-15T00:21:58;97301.03;;;14.10;47.55
61324;BME280;47203;48.428;11.974;2024-02-15T00:24:02;97298.91;;;14.07;47.56
61324;BME280;47203;48.428;11.974;2024-02-15T00:26:07;97302.91;;;14.05;47.45
61324;BME280;47203;48.428;11.974;2024-02-15T00:28:11;97303.97;;;14.04;47.57
61324;BME280;47203;48.428;11.974;2024-02-15T00:30:15;97306.91;;;14.02;47.73
61324;BME280;47203;48.428;11.974;2024-02-15T00:32:19;97308.50;;;14.03;47.67
61324;BME280;47203;48.428;11.974;2024-02-15T00:34:23;97306.09;;;14.02;47.43
61324;BME280;47203;48.428;11.974;2024-02-15T00:36:28;97311.66;;;14.00;47.58
61324;BME280;47203;48.428;11.974;2024-02-15T00:38:31;97310.91;;;13.89;47.70
61324;BME280;47203;48.428;11.974;2024-02-15T00:40:35;97309.03;;;13.95;47.54
61324;BME280;47203;48.428;11.974;2024-02-15T00:42:40;97313.56;;;13.94;47.58
61324;BME280;47203;48.428;11.974;2024-02-15T00:44:44;97312.47;;;13.95;47.57
61324;BME280;47203;48.428;11.974;2024-02-15T00:46:46;97306.13;;;13.96;47.71
61324;BME280;47203;48.428;11.974;2024-02-15T00:48:50;97302.69;;;13.96;47.51
61324;BME280;47203;48.428;11.974;2024-02-15T00:50:54;97304.78;;;13.99;47.66
61324;BME280;47203;48.428;11.974;2024-02-15T00:52:58;97307.16;;;14.01;47.47
61324;BME280;47203;48.428;11.974;2024-02-15T00:55:02;97306.34;;;14.00;47.49
61324;BME280;47203;48.428;11.974;2024-02-15T00:57:05;97300.28;;;14.00;47.47
61324;BME280;47203;48.428;11.974;2024-02-15T00:59:11;97305.06;;;13.98;47.60
61324;BME280;47203;48.428;11.974;2024-02-15T01:01:14;97300.56;;;13.98;47.48
61324;BME280;47203;48.428;11.974;2024-02-15T01:03:18;97297.13;;;13.98;47.40
61324;BME280;47203;48.428;11.974;2024-02-15T01:05:21;97306.13;;;13.96;47.36
61324;BME280;47203;48.428;11.974;2024-02-15T01:07:26;97302.97;;;13.94;47.34
61324;BME280;47203;48.428;11.974;2024-02-15T01:09:30;97299.00;;;13.92;47.45
61324;BME280;47203;48.428;11.974;2024-02-15T01:11:33;97306.13;;;13.91;47.31
61324;BME280;47203;48.428;11.974;2024-02-15T01:13:37;97302.69;;;13.91;47.40
61324;BME280;47203;48.428;11.974;2024-02-15T01:15:42;97305.13;;;13.87;47.30
61324;BME280;47203;48.428;11.974;2024-02-15T01:17:46;97293.72;;;13.87;47.39
61324;BME280;47203;48.428;11.974;2024-02-15T01:19:50;97296.63;;;13.85;47.04
61324;BME280;47203;48.428;11.974;2024-02-15T01:21:54;97298.78;;;13.83;47.31
61324;BME280;47203;48.428;11.974;2024-02-15T01:23:58;97299.03;;;13.82;47.25
61324;BME280;47203;48.428;11.974;2024-02-15T01:26:03;97299.03;;;13.82;47.21
61324;BME280;47203;48.428;11.974;2024-02-15T01:28:07;97300.59;;;13.83;47.31
61324;BME280;47203;48.428;11.974;2024-02-15T01:30:11;97298.50;;;13.79;47.34
61324;BME280;47203;48.428;11.974;2024-02-15T01:32:17;97296.94;;;13.78;47.27
61324;BME280;47203;48.428;11.974;2024-02-15T01:34:20;97290.06;;;13.77;47.45
61324;BME280;47203;48.428;11.974;2024-02-15T01:36:25;97291.13;;;13.76;47.41
61324;BME280;47203;48.428;11.974;2024-02-15T01:38:29;97297.22;;;13.77;47.27
61324;BME280;47203;48.428;11.974;2024-02-15T01:40:33;97291.13;;;13.76;47.36
61324;BME280;47203;48.428;11.974;2024-02-15T01:42:37;97291.94;;;13.77;47.27
61324;BME280;47203;48.428;11.974;2024-02-15T01:44:41;97289.28;;;13.77;47.39
61324;BME280;47203;48.428;11.974;2024-02-15T01:46:48;97281.84;;;13.74;47.30
61324;BME280;47203;48.428;11.974;2024-02-15T01:48:54;97278.44;;;13.73;47.31
61324;BME280;47203;48.428;11.974;2024-02-15T01:50:59;97273.41;;;13.72;47.24
61324;BME280;47203;48.428;11.974;2024-02-15T01:53:06;97277.09;;;13.71;47.26
61324;BME280;47203;48.428;11.974;2024-02-15T01:55:09;97279.75;;;13.71;47.36
61324;BME280;47203;48.428;11.974;2024-02-15T01:57:13;97285.31;;;13.69;47.08
61324;BME280;47203;48.428;11.974;2024-02-15T01:59:18;97271.59;;;13.67;47.27
61324;BME280;47203;48.428;11.974;2024-02-15T02:01:22;97277.91;;;13.66;47.00
61324;BME280;47203;48.428;11.974;2024-02-15T02:03:26;97277.66;;;13.68;47.13
61324;BME280;47203;48.428;11.974;2024-02-15T02:05:31;97272.13;;;13.64;47.13
61324;BME280;47203;48.428;11.974;2024-02-15T02:07:35;97282.16;;;13.67;46.99
61324;BME280;47203;48.428;11.974;2024-02-15T02:09:38;97286.13;;;13.65;47.19
61324;BME280;47203;48.428;11.974;2024-02-15T02:11:42;97279.53;;;13.62;47.20
61324;BME280;47203;48.428;11.974;2024-02-15T02:13:48;97280.88;;;13.59;47.23
61324;BME280;47203;48.428;11.974;2024-02-15T02:15:54;97284.84;;;13.57;47.28
61324;BME280;47203;48.428;11.974;2024-02-15T02:17:59;97278.75;;;13.56;47.28
61324;BME280;47203;48.428;11.974;2024-02-15T02:20:03;97280.34;;;13.57;47.05
61324;BME280;47203;48.428;11.974;2024-02-15T02:22:12;97275.81;;;13.58;47.31
61324;BME280;47203;48.428;11.974;2024-02-15T02:24:22;97282.69;;;13.59;47.46
61324;BME280;47203;48.428;11.974;2024-02-15T02:26:27;97273.44;;;13.61;47.07
61324;BME280;47203;48.428;11.974;2024-02-15T02:28:31;97266.84;;;13.64;47.30
61324;BME280;47203;48.428;11.974;2024-02-15T02:30:35;97272.63;;;13.66;47.18
61324;BME280;47203;48.428;11.974;2024-02-15T02:32:38;97267.06;;;13.68;47.06
61324;BME280;47203;48.428;11.974;2024-02-15T02:34:42;97265.47;;;13.67;47.22
61324;BME280;47203;48.428;11.974;2024-02-15T02:36:46;97268.94;;;13.67;47.12
61324;BME280;47203;48.428;11.974;2024-02-15T02:38:50;97267.34;;;13.66;47.19
61324;BME280;47203;48.428;11.974;2024-02-15T02:40:54;97267.06;;;13.68;47.25
61324;BME280;47203;48.428;11.974;2024-02-15T02:42:59;97262.84;;;13.67;47.20
61324;BME280;47203;48.428;11.974;2024-02-15T02:45:02;97267.59;;;13.70;47.17
61324;BME280;47203;48.428;11.974;2024-02-15T02:47:07;97267.59;;;13.70;47.11
61324;BME280;47203;48.428;11.974;2024-02-15T02:49:11;97268.66;;;13.69;47.15
61324;BME280;47203;48.428;11.974;2024-02-15T02:51:16;97277.66;;;13.68;47.07
61324;BME280;47203;48.428;11.974;2024-02-15T02:53:19;97270.78;;;13.67;47.02
61324;BME280;47203;48.428;11.974;2024-02-15T02:55:23;97264.69;;;13.66;47.05
61324;BME280;47203;48.428;11.974;2024-02-15T02:57:30;97263.09;;;13.65;47.18
61324;BME280;47203;48.428;11.974;2024-02-15T02:59:35;97270.00;;;13.66;47.14
61324;BME280;47203;48.428;11.974;2024-02-15T03:01:42;97258.63;;;13.66;47.01
61324;BME280;47203;48.428;11.974;2024-02-15T03:03:45;97264.19;;;13.64;47.09
61324;BME280;47203;48.428;11.974;2024-02-15T03:05:50;97264.97;;;13.65;47.05
61324;BME280;47203;48.428;11.974;2024-02-15T03:07:53;97273.19;;;13.63;47.21
61324;BME280;47203;48.428;11.974;2024-02-15T03:09:57;97266.84;;;13.64;47.20
61324;BME280;47203;48.428;11.974;2024-02-15T03:12:00;97265.25;;;13.63;47.24
61324;BME280;47203;48.428;11.974;2024-02-15T03:14:06;97263.66;;;13.62;47.31
61324;BME280;47203;48.428;11.974;2024-02-15T03:16:11;97268.94;;;13.62;47.29
61324;BME280;47203;48.428;11.974;2024-02-15T03:18:15;97261.53;;;13.64;47.30
61324;BME280;47203;48.428;11.974;2024-02-15T03:20:19;97270.53;;;13.63;47.31
61324;BME280;47203;48.428;11.974;2024-02-15T03:22:28;97268.94;;;13.62;47.29
61324;BME280;47203;48.428;11.974;2024-02-15T03:24:32;97275.03;;;13.63;47.23
61324;BME280;47203;48.428;11.974;2024-02-15T03:26:35;97272.66;;;13.61;47.31
61324;BME280;47203;48.428;11.974;2024-02-15T03:28:40;97268.44;;;13.60;47.01
61324;BME280;47203;48.428;11.974;2024-02-15T03:30:44;97272.66;;;13.61;47.32
61324;BME280;47203;48.428;11.974;2024-02-15T03:32:50;97271.84;;;13.60;47.23
61324;BME280;47203;48.428;11.974;2024-02-15T03:34:54;97272.13;;;13.59;47.19
61324;BME280;47203;48.428;11.974;2024-02-15T03:36:58;97268.69;;;13.58;47.33
61324;BME280;47203;48.428;11.974;2024-02-15T03:39:05;97275.81;;;13.58;47.38
61324;BME280;47203;48.428;11.974;2024-02-15T03:41:10;97271.88;;;13.55;47.36
61324;BME280;47203;48.428;11.974;2024-02-15T03:43:13;97276.63;;;13.53;47.33
61324;BME280;47203;48.428;11.974;2024-02-15T03:45:16;97266.31;;;13.52;47.37
61324;BME280;47203;48.428;11.974;2024-02-15T03:47:20;97271.09;;;13.50;47.41
61324;BME280;47203;48.428;11.974;2024-02-15T03:49:25;97258.97;;;13.43;47.53
61324;BME280;47203;48.428;11.974;2024-02-15T03:51:29;97262.38;;;13.44;47.40
61324;BME280;47203;48.428;11.974;2024-02-15T03:53:35;97255.78;;;13.41;47.58
61324;BME280;47203;48.428;11.974;2024-02-15T03:55:39;97260.81;;;13.43;47.43
61324;BME280;47203;48.428;11.974;2024-02-15T03:57:43;97258.44;;;13.41;47.49
61324;BME280;47203;48.428;11.974;2024-02-15T03:59:48;97254.22;;;13.40;47.69
61324;BME280;47203;48.428;11.974;2024-02-15T04:01:55;97263.72;;;13.41;47.44
61324;BME280;47203;48.428;11.974;2024-02-15T04:03:59;97270.31;;;13.39;47.22
61324;BME280;47203;48.428;11.974;2024-02-15T04:06:03;97267.94;;;13.27;47.57
61324;BME280;47203;48.428;11.974;2024-02-15T04:08:07;97270.59;;;13.32;47.61
61324;BME280;47203;48.428;11.974;2024-02-15T04:10:11;97275.59;;;13.34;47.61
61324;BME280;47203;48.428;11.974;2024-02-15T04:12:14;97272.97;;;13.34;47.56
61324;BME280;47203;48.428;11.974;2024-02-15T04:14:19;97275.88;;;13.32;47.71
61324;BME280;47203;48.428;11.974;2024-02-15T04:16:22;97276.41;;;13.34;47.61
61324;BME280;47203;48.428;11.974;2024-02-15T04:18:28;97268.72;;;13.33;47.57
61324;BME280;47203;48.428;11.974;2024-02-15T04:20:34;97277.47;;;13.33;47.64
61324;BME280;47203;48.428;11.974;2024-02-15T04:22:39;97283.81;;;13.32;47.71
61324;BME280;47203;48.428;11.974;2024-02-15T04:24:45;97274.28;;;13.31;47.59
61324;BME280;47203;48.428;11.974;2024-02-15T04:26:48;97279.56;;;13.31;47.71
61324;BME280;47203;48.428;11.974;2024-02-15T04:28:53;97280.63;;;13.30;47.63
61324;BME280;47203;48.428;11.974;2024-02-15T04:30:57;97273.22;;;13.32;47.55
61324;BME280;47203;48.428;11.974;2024-02-15T04:33:00;97273.50;;;13.31;47.57
61324;BME280;47203;48.428;11.974;2024-02-15T04:35:05;97274.00;;;13.33;47.41
61324;BME280;47203;48.428;11.974;2024-02-15T04:37:11;97279.06;;;13.34;47.55
61324;BME280;47203;48.428;11.974;2024-02-15T04:39:16;97276.41;;;13.34;47.47
61324;BME280;47203;48.428;11.974;2024-02-15T04:41:26;97273.50;;;13.36;47.42
61324;BME280;47203;48.428;11.974;2024-02-15T04:43:31;97272.47;;;13.37;47.48
61324;BME280;47203;48.428;11.974;2024-02-15T04:45:35;97274.06;;;13.38;47.37
61324;BME280;47203;48.428;11.974;2024-02-15T04:47:38;97267.94;;;13.37;47.43
61324;BME280;47203;48.428;11.974;2024-02-15T04:49:43;97273.25;;;13.37;47.52
61324;BME280;47203;48.428;11.974;2024-02-15T04:51:47;97266.91;;;13.38;47.33
61324;BME280;47203;48.428;11.974;2024-02-15T04:53:51;97271.66;;;13.41;47.37
61324;BME280;47203;48.428;11.974;2024-02-15T04:55:56;97269.00;;;13.41;47.41
61324;BME280;47203;48.428;11.974;2024-02-15T04:58:03;97268.72;;;13.43;47.35
61324;BME280;47203;48.428;11.974;2024-02-15T05:00:09;97269.81;;;13.42;47.37
61324;BME280;47203;48.428;11.974;2024-02-15T05:02:15;97265.31;;;13.42;47.51
61324;BME280;47203;48.428;11.974;2024-02-15T05:04:19;97266.34;;;13.41;47.36
61324;BME280;47203;48.428;11.974;2024-02-15T05:06:22;97270.88;;;13.41;47.41
61324;BME280;47203;48.428;11.974;2024-02-15T05:08:27;97275.09;;;13.42;47.27
61324;BME280;47203;48.428;11.974;2024-02-15T05:10:34;97269.81;;;13.42;47.30
61324;BME280;47203;48.428;11.974;2024-02-15T05:12:39;97275.09;;;13.42;47.28
61324;BME280;47203;48.428;11.974;2024-02-15T05:14:43;97266.09;;;13.43;47.40
61324;BME280;47203;48.428;11.974;2024-02-15T05:16:46;97262.66;;;13.42;47.26
61324;BME280;47203;48.428;11.974;2024-02-15T05:18:51;97258.16;;;13.43;47.37
61324;BME280;47203;48.428;11.974;2024-02-15T05:20:55;97259.25;;;13.42;47.30
61324;BME280;47203;48.428;11.974;2024-02-15T05:22:59;97258.97;;;13.43;47.47
61324;BME280;47203;48.428;11.974;2024-02-15T05:25:02;97261.59;;;13.43;47.32
61324;BME280;47203;48.428;11.974;2024-02-15T05:27:07;97263.44;;;13.43;47.28
61324;BME280;47203;48.428;11.974;2024-02-15T05:29:13;97263.72;;;13.41;47.42
61324;BME280;47203;48.428;11.974;2024-02-15T05:31:19;97265.84;;;13.39;47.36
61324;BME280;47203;48.428;11.974;2024-02-15T05:33:24;97268.50;;;13.39;47.24
61324;BME280;47203;48.428;11.974;2024-02-15T05:35:28;97261.59;;;13.38;47.05
61324;BME280;47203;48.428;11.974;2024-02-15T05:37:30;97268.75;;;13.38;47.42
61324;BME280;47203;48.428;11.974;2024-02-15T05:39:36;97260.81;;;13.38;47.18
61324;BME280;47203;48.428;11.974;2024-02-15T05:41:41;97262.16;;;13.35;47.34
61324;BME280;47203;48.428;11.974;2024-02-15T05:43:45;97258.97;;;13.33;47.27
61324;BME280;47203;48.428;11.974;2024-02-15T05:45:51;97253.69;;;13.33;47.29
61324;BME280;47203;48.428;11.974;2024-02-15T05:47:55;97258.16;;;13.33;47.34
61324;BME280;47203;48.428;11.974;2024-02-15T05:49:58;97257.66;;;13.31;47.29
61324;BME280;47203;48.428;11.974;2024-02-15T05:52:03;97260.28;;;13.31;47.13
61324;BME280;47203;48.428;11.974;2024-02-15T05:54:07;97260.28;;;13.31;47.19
61324;BME280;47203;48.428;11.974;2024-02-15T05:56:09;97266.91;;;13.28;47.17
61324;BME280;47203;48.428;11.974;2024-02-15T05:58:14;97265.31;;;13.27;47.42
61324;BME280;47203;48.428;11.974;2024-02-15T06:00:18;97264.25;;;13.28;47.40
61324;BME280;47203;48.428;11.974;2024-02-15T06:02:26;97261.88;;;13.26;47.34
61324;BME280;47203;48.428;11.974;2024-02-15T06:04:29;97262.16;;;13.25;47.40
61324;BME280;47203;48.428;11.974;2024-02-15T06:06:33;97272.44;;;13.26;47.15
61324;BME280;47203;48.428;11.974;2024-02-15T06:08:39;97268.22;;;13.25;47.34
61324;BME280;47203;48.428;11.974;2024-02-15T06:10:41;97264.28;;;13.23;47.15
61324;BME280;47203;48.428;11.974;2024-02-15T06:12:44;97267.16;;;13.21;47.38
61324;BME280;47203;48.428;11.974;2024-02-15T06:14:48;97262.94;;;13.20;47.37
61324;BME280;47203;48.428;11.974;2024-02-15T06:16:51;97266.66;;;13.19;47.36
61324;BME280;47203;48.428;11.974;2024-02-15T06:18:58;97271.16;;;13.19;47.38
61324;BME280;47203;48.428;11.974;2024-02-15T06:21:02;97272.19;;;13.18;47.40
61324;BME280;47203;48.428;11.974;2024-02-15T06:23:07;97269.03;;;13.16;47.25
61324;BME280;47203;48.428;11.974;2024-02-15T06:25:11;97271.97;;;13.14;47.26
61324;BME280;47203;48.428;11.974;2024-02-15T06:27:13;97275.09;;;13.11;47.26
61324;BME280;47203;48.428;11.974;2024-02-15T06:29:17;97280.66;;;13.09;47.31
61324;BME280;47203;48.428;11.974;2024-02-15T06:31:39;97281.19;;;13.06;47.39
61324;BME280;47203;48.428;11.974;2024-02-15T06:34:01;97290.72;;;13.02;47.31
61324;BME280;47203;48.428;11.974;2024-02-15T06:36:23;97286.22;;;12.98;47.54
61324;BME280;47203;48.428;11.974;2024-02-15T06:38:44;97294.41;;;12.96;47.61
61324;BME280;47203;48.428;11.974;2024-02-15T06:41:05;97291.53;;;12.92;47.35
61324;BME280;47203;48.428;11.974;2024-02-15T06:43:08;97293.34;;;12.92;47.69
61324;BME280;47203;48.428;11.974;2024-02-15T06:45:12;97290.72;;;12.92;47.64
61324;BME280;47203;48.428;11.974;2024-02-15T06:47:16;97294.44;;;12.91;47.66
61324;BME280;47203;48.428;11.974;2024-02-15T06:49:23;97299.97;;;12.89;47.55
61324;BME280;47203;48.428;11.974;2024-02-15T06:51:28;97302.34;;;12.91;47.60
61324;BME280;47203;48.428;11.974;2024-02-15T06:53:31;97304.72;;;12.92;47.83
61324;BME280;47203;48.428;11.974;2024-02-15T06:55:34;97306.03;;;12.95;47.76
61324;BME280;47203;48.428;11.974;2024-02-15T06:57:39;97302.88;;;12.98;47.64
61324;BME280;47203;48.428;11.974;2024-02-15T06:59:47;97309.72;;;12.99;47.90
61324;BME280;47203;48.428;11.974;2024-02-15T07:01:50;97303.66;;;13.04;47.96
61324;BME280;47203;48.428;11.974;2024-02-15T07:03:54;97306.56;;;13.07;47.62
61324;BME280;47203;48.428;11.974;2024-02-15T07:06:02;97312.38;;;13.09;47.78
61324;BME280;47203;48.428;11.974;2024-02-15T07:08:07;97308.16;;;13.14;47.84
61324;BME280;47203;48.428;11.974;2024-02-15T07:10:12;97307.34;;;13.18;47.91
61324;BME280;47203;48.428;11.974;2024-02-15T07:12:18;97306.81;;;13.21;47.65
61324;BME280;47203;48.428;11.974;2024-02-15T07:14:24;97310.00;;;13.23;47.64
61324;BME280;47203;48.428;11.974;2024-02-15T07:16:27;97293.88;;;13.25;47.74
61324;BME280;47203;48.428;11.974;2024-02-15T07:18:30;97305.75;;;13.27;47.67
61324;BME280;47203;48.428;11.974;2024-02-15T07:20:34;97300.22;;;13.29;47.63
61324;BME280;47203;48.428;11.974;2024-02-15T07:22:38;97296.75;;;13.28;47.70
61324;BME280;47203;48.428;11.974;2024-02-15T07:24:43;97301.00;;;13.30;47.70
61324;BME280;47203;48.428;11.974;2024-02-15T07:26:46;97302.31;;;13.32;47.61
61324;BME280;47203;48.428;11.974;2024-02-15T07:28:50;97298.38;;;13.35;47.82
61324;BME280;47203;48.428;11.974;2024-02-15T07:30:54;97301.28;;;13.38;47.80
61324;BME280;47203;48.428;11.974;2024-02-15T07:32:58;97302.31;;;13.42;47.72
61324;BME280;47203;48.428;11.974;2024-02-15T07:35:02;97295.97;;;13.49;47.75
61324;BME280;47203;48.428;11.974;2024-02-15T07:37:07;97299.13;;;13.56;47.90
61324;BME280;47203;48.428;11.974;2024-02-15T07:39:14;97295.38;;;13.62;47.92
61324;BME280;47203;48.428;11.974;2024-02-15T07:41:26;97294.56;;;13.72;47.68
61324;BME280;47203;48.428;11.974;2024-02-15T07:43:30;97293.47;;;13.83;47.58
61324;BME280;47203;48.428;11.974;2024-02-15T07:45:33;97288.69;;;13.90;47.67
61324;BME280;47203;48.428;11.974;2024-02-15T07:47:40;97287.56;;;14.02;47.67
61324;BME280;47203;48.428;11.974;2024-02-15T07:49:45;97284.06;;;14.11;47.54
61324;BME280;47203;48.428;11.974;2024-02-15T07:51:48;97296.44;;;14.26;47.50
61324;BME280;47203;48.428;11.974;2024-02-15T07:53:55;97286.31;;;14.39;47.38
61324;BME280;47203;48.428;11.974;2024-02-15T07:56:00;97280.41;;;14.52;47.26
61324;BME280;47203;48.428;11.974;2024-02-15T07:58:03;97285.63;;;14.68;47.24
61324;BME280;47203;48.428;11.974;2024-02-15T08:00:09;97283.69;;;14.78;47.03
61324;BME280;47203;48.428;11.974;2024-02-15T08:02:14;97283.03;;;14.92;47.08
61324;BME280;47203;48.428;11.974;2024-02-15T08:04:20;97283.75;;;15.03;46.88
61324;BME280;47203;48.428;11.974;2024-02-15T08:06:25;97284.44;;;15.13;46.75
61324;BME280;47203;48.428;11.974;2024-02-15T08:08:30;97280.91;;;15.23;46.68
61324;BME280;47203;48.428;11.974;2024-02-15T08:10:33;97282.66;;;15.33;46.52
61324;BME280;47203;48.428;11.974;2024-02-15T08:12:41;97279.13;;;15.43;46.70
61324;BME280;47203;48.428;11.974;2024-02-15T08:14:45;97286.69;;;15.54;46.50
61324;BME280;47203;48.428;11.974;2024-02-15T08:16:49;97282.63;;;15.62;46.08
61324;BME280;47203;48.428;11.974;2024-02-15T08:18:52;97284.66;;;15.70;46.15
61324;BME280;47203;48.428;11.974;2024-02-15T08:20:57;97276.88;;;15.79;45.88
61324;BME280;47203;48.428;11.974;2024-02-15T08:23:01;97278.41;;;15.85;45.85
61324;BME280;47203;48.428;11.974;2024-02-15T08:25:07;97277.28;;;15.92;45.54
61324;BME280;47203;48.428;11.974;2024-02-15T08:27:12;97283.53;;;16.01;45.43
61324;BME280;47203;48.428;11.974;2024-02-15T08:29:19;97265.38;;;16.08;45.31
61324;BME280;47203;48.428;11.974;2024-02-15T08:31:24;97261.28;;;16.16;45.31
61324;BME280;47203;48.428;11.974;2024-02-15T08:33:27;97268.63;;;16.24;45.07
61324;BME280;47203;48.428;11.974;2024-02-15T08:35:32;97259.44;;;16.35;45.01
61324;BME280;47203;48.428;11.974;2024-02-15T08:37:36;97259.28;;;16.46;44.97
61324;BME280;47203;48.428;11.974;2024-02-15T08:39:41;97264.94;;;16.58;44.70
61324;BME280;47203;48.428;11.974;2024-02-15T08:41:46;97257.81;;;16.72;44.74
61324;BME280;47203;48.428;11.974;2024-02-15T08:43:50;97253.91;;;16.84;44.40
61324;BME280;47203;48.428;11.974;2024-02-15T08:45:55;97255.53;;;16.99;44.47
61324;BME280;47203;48.428;11.974;2024-02-15T08:47:57;97255.00;;;17.16;44.18
61324;BME280;47203;48.428;11.974;2024-02-15T08:50:01;97253.03;;;17.35;44.06
61324;BME280;47203;48.428;11.974;2024-02-15T08:52:04;97253.72;;;17.55;43.93
61324;BME280;47203;48.428;11.974;2024-02-15T08:54:09;97255.09;;;17.80;43.63
61324;BME280;47203;48.428;11.974;2024-02-15T08:56:13;97256.94;;;18.07;43.27
61324;BME280;47203;48.428;11.974;2024-02-15T08:58:16;97250.88;;;18.29;42.87
61324;BME280;47203;48.428;11.974;2024-02-15T09:00:20;97252.88;;;18.46;42.71
61324;BME280;47203;48.428;11.974;2024-02-15T09:02:25;97259.31;;;18.68;42.52
61324;BME280;47203;48.428;11.974;2024-02-15T09:04:29;97253.50;;;18.89;42.42
61324;BME280;47203;48.428;11.974;2024-02-15T09:06:32;97251.91;;;19.10;42.35
61324;BME280;47203;48.428;11.974;2024-02-15T09:08:36;97256.13;;;19.43;42.06
61324;BME280;47203;48.428;11.974;2024-02-15T09:10:40;97253.69;;;19.73;41.59
61324;BME280;47203;48.428;11.974;2024-02-15T09:12:44;97254.25;;;19.92;41.30
61324;BME280;47203;48.428;11.974;2024-02-15T09:14:49;97244.69;;;20.09;41.08
61324;BME280;47203;48.428;11.974;2024-02-15T09:16:53;97246.91;;;20.24;41.07
61324;BME280;47203;48.428;11.974;2024-02-15T09:18:58;97249.25;;;20.43;40.78
61324;BME280;47203;48.428;11.974;2024-02-15T09:21:03;97241.69;;;20.63;40.54
61324;BME280;47203;48.428;11.974;2024-02-15T09:23:07;97245.31;;;20.84;40.20
61324;BME280;47203;48.428;11.974;2024-02-15T09:25:14;97241.94;;;21.05;39.67
61324;BME280;47203;48.428;11.974;2024-02-15T09:27:17;97246.47;;;21.22;39.42
61324;BME280;47203;48.428;11.974;2024-02-15T09:29:21;97233.94;;;21.35;39.35
61324;BME280;47203;48.428;11.974;2024-02-15T09:31:26;97235.50;;;21.44;39.02
61324;BME280;47203;48.428;11.974;2024-02-15T09:33:30;97240.84;;;21.53;38.73
61324;BME280;47203;48.428;11.974;2024-02-15T09:35:35;97243.94;;;21.64;38.47
61324;BME280;47203;48.428;11.974;2024-02-15T09:37:43;97243.69;;;21.78;38.48
61324;BME280;47203;48.428;11.974;2024-02-15T09:39:47;97234.31;;;21.93;38.60
61324;BME280;47203;48.428;11.974;2024-02-15T09:41:54;97234.25;;;22.02;38.54
61324;BME280;47203;48.428;11.974;2024-02-15T09:44:03;97237.78;;;22.14;38.37
61324;BME280;47203;48.428;11.974;2024-02-15T09:46:07;97242.09;;;22.28;38.33
61324;BME280;47203;48.428;11.974;2024-02-15T09:48:11;97232.91;;;22.38;38.19
61324;BME280;47203;48.428;11.974;2024-02-15T09:50:17;97235.88;;;22.57;38.12
61324;BME280;47203;48.428;11.974;2024-02-15T09:52:22;97237.53;;;22.83;37.81
61324;BME280;47203;48.428;11.974;2024-02-15T09:54:26;97234.91;;;23.08;37.79
61324;BME280;47203;48.428;11.974;2024-02-15T09:56:32;97232.16;;;23.29;37.39
61324;BME280;47203;48.428;11.974;2024-02-15T09:58:37;97225.34;;;23.44;37.06
61324;BME280;47203;48.428;11.974;2024-02-15T10:00:41;97223.00;;;23.55;36.81
61324;BME280;47203;48.428;11.974;2024-02-15T10:02:51;97229.56;;;23.69;36.61
61324;BME280;47203;48.428;11.974;2024-02-15T10:04:57;97220.84;;;23.85;36.54
61324;BME280;47203;48.428;11.974;2024-02-15T10:07:01;97225.09;;;23.98;36.40
61324;BME280;47203;48.428;11.974;2024-02-15T10:09:28;97224.69;;;24.12;36.15
61324;BME280;47203;48.428;11.974;2024-02-15T10:11:32;97216.81;;;24.32;36.10
61324;BME280;47203;48.428;11.974;2024-02-15T10:13:35;97216.88;;;24.48;35.78
61324;BME280;47203;48.428;11.974;2024-02-15T10:15:40;97210.41;;;24.65;35.35
61324;BME280;47203;48.428;11.974;2024-02-15T10:17:54;97208.88;;;24.80;34.80
61324;BME280;47203;48.428;11.974;2024-02-15T10:20:06;97208.91;;;24.96;34.67
61324;BME280;47203;48.428;11.974;2024-02-15T10:22:12;97207.53;;;25.18;34.52
61324;BME280;47203;48.428;11.974;2024-02-15T10:24:18;97206.91;;;25.40;33.96
61324;BME280;47203;48.428;11.974;2024-02-15T10:28:26;97202.56;;;25.87;33.08
61324;BME280;47203;48.428;11.974;2024-02-15T10:30:31;97199.41;;;26.01;32.53
61324;BME280;47203;48.428;11.974;2024-02-15T10:32:35;97200.91;;;26.18;32.44
61324;BME280;47203;48.428;11.974;2024-02-15T10:34:44;97189.19;;;26.30;31.88
61324;BME280;47203;48.428;11.974;2024-02-15T10:36:48;97189.88;;;26.46;32.02
61324;BME280;47203;48.428;11.974;2024-02-15T10:38:52;97188.72;;;26.67;31.40
61324;BME280;47203;48.428;11.974;2024-02-15T10:41:03;97185.31;;;26.70;30.90
61324;BME280;47203;48.428;11.974;2024-02-15T10:43:10;97182.97;;;26.69;30.84
61324;BME280;47203;48.428;11.974;2024-02-15T10:45:16;97180.00;;;26.74;30.65
61324;BME280;47203;48.428;11.974;2024-02-15T10:47:20;97173.28;;;26.87;30.56
61324;BME280;47203;48.428;11.974;2024-02-15T10:49:25;97173.63;;;27.09;30.17
61324;BME280;47203;48.428;11.974;2024-02-15T10:51:30;97172.81;;;27.31;30.17
61324;BME280;47203;48.428;11.974;2024-02-15T10:53:39;97168.53;;;27.54;29.58
61324;BME280;47203;48.428;11.974;2024-02-15T10:55:53;97166.00;;;27.68;29.70